Time;durP1;ratioP1;P1;durP2;ratioP2;P2;SDS_P1;SDS_P2;PMS_P1;PMS_P2;Temp;Humidity;BMP_temperature;BMP_pressure;BME280_temperature;BME280_humidity;BME280_pressure;Samples;Min_cycle;Max_cycle;Signal;HPM_P1;HPM_P2
2022/04/23 00:00:09;;;;;;;3.10;1.95;;;11.90;99.90;;;;;;5063177;28;20055;-79
2022/04/23 00:02:35;;;;;;;5.00;2.47;;;11.90;99.90;;;;;;5066273;28;20023;-79
2022/04/23 00:05:01;;;;;;;5.55;2.30;;;11.90;99.90;;;;;;5071668;28;20021;-79
2022/04/23 00:07:27;;;;;;;2.42;1.55;;;11.80;99.90;;;;;;5070070;28;20016;-79
2022/04/23 00:09:53;;;;;;;3.30;1.98;;;11.70;99.90;;;;;;5071152;28;20493;-78
2022/04/23 00:12:19;;;;;;;4.78;2.08;;;11.70;99.90;;;;;;5079148;28;20017;-78
2022/04/23 00:14:45;;;;;;;3.33;1.70;;;11.60;99.90;;;;;;5058224;28;20032;-78
2022/04/23 00:17:10;;;;;;;6.30;1.70;;;11.50;99.90;;;;;;5062791;28;20027;-78
2022/04/23 00:19:36;;;;;;;3.85;1.63;;;11.50;99.90;;;;;;5071364;28;20025;-79
2022/04/23 00:22:02;;;;;;;4.60;2.63;;;11.50;99.90;;;;;;5081284;28;20048;-79
2022/04/23 00:24:28;;;;;;;7.05;2.22;;;11.60;99.90;;;;;;5085188;28;20395;-79
2022/04/23 00:26:53;;;;;;;3.03;1.80;;;11.40;99.90;;;;;;5082022;28;20494;-79
2022/04/23 00:29:19;;;;;;;4.63;2.17;;;11.50;99.90;;;;;;5053599;28;20534;-79
2022/04/23 00:31:45;;;;;;;3.70;2.15;;;11.50;99.90;;;;;;5090076;28;20016;-79
2022/04/23 00:34:11;;;;;;;2.20;1.70;;;11.50;99.90;;;;;;5078348;28;20159;-79
2022/04/23 00:36:36;;;;;;;3.42;1.85;;;11.40;99.90;;;;;;5078745;28;20058;-78
2022/04/23 00:39:05;;;;;;;2.92;1.75;;;11.40;99.90;;;;;;5077039;28;20032;-78
2022/04/23 00:41:46;;;;;;;2.42;1.85;;;11.50;99.90;;;;;;5067210;28;20024;-79
2022/04/23 00:44:12;;;;;;;;;;;11.40;99.90;;;;;;5062607;28;20032;-78
2022/04/23 00:46:38;;;;;;;4.68;1.45;;;11.50;99.90;;;;;;5058206;28;19928;-79
2022/04/23 00:49:06;;;;;;;2.03;1.42;;;11.40;99.90;;;;;;5080358;28;20024;-78
2022/04/23 00:51:32;;;;;;;2.30;1.70;;;11.30;99.90;;;;;;5081475;28;20025;-78
2022/04/23 00:54:04;;;;;;;5.10;2.03;;;11.40;99.90;;;;;;5073956;28;20019;-78
2022/04/23 00:56:34;;;;;;;2.20;1.98;;;11.40;99.90;;;;;;5061286;28;20113;-78
2022/04/23 00:59:11;;;;;;;6.03;1.90;;;11.50;99.90;;;;;;5075884;28;20017;-78
2022/04/23 01:01:39;;;;;;;5.22;1.73;;;11.50;99.90;;;;;;5083214;28;20021;-78
2022/04/23 01:04:06;;;;;;;3.83;2.28;;;11.30;99.90;;;;;;5077362;28;20557;-78
2022/04/23 01:06:34;;;;;;;2.47;1.80;;;11.40;99.90;;;;;;5080133;28;20035;-78
2022/04/23 01:09:06;;;;;;;5.65;2.08;;;11.50;99.90;;;;;;5065568;28;20028;-79
2022/04/23 01:11:32;;;;;;;9.52;3.13;;;11.50;99.90;;;;;;5086102;28;20020;-78
2022/04/23 01:14:00;;;;;;;5.25;2.20;;;11.60;99.90;;;;;;5072944;28;20533;-78
2022/04/23 01:16:26;;;;;;;7.40;2.38;;;11.70;99.90;;;;;;5078827;28;20039;-78
2022/04/23 01:18:52;;;;;;;5.00;2.50;;;11.60;99.90;;;;;;5076549;28;20035;-79
2022/04/23 01:21:18;;;;;;;8.57;2.08;;;11.70;99.90;;;;;;5077280;28;20024;-79
2022/04/23 01:23:47;;;;;;;6.22;2.47;;;11.60;99.90;;;;;;5080117;28;20027;-78
2022/04/23 01:26:22;;;;;;;6.50;1.80;;;11.50;99.90;;;;;;5060042;28;20090;-79
2022/04/23 01:28:48;;;;;;;3.78;2.00;;;11.60;99.90;;;;;;5087632;28;20056;-79
2022/04/23 01:31:14;;;;;;;6.60;2.13;;;11.60;99.90;;;;;;5068003;28;20024;-78
2022/04/23 01:33:40;;;;;;;4.90;1.70;;;11.50;99.90;;;;;;5067477;28;20024;-78
2022/04/23 01:36:06;;;;;;;4.63;1.70;;;11.50;99.90;;;;;;5060550;28;20063;-79
2022/04/23 01:38:32;;;;;;;5.32;1.80;;;11.50;99.90;;;;;;5065588;28;20024;-78
2022/04/23 01:40:57;;;;;;;4.93;1.63;;;11.50;99.90;;;;;;5073156;28;20552;-79
2022/04/23 01:43:23;;;;;;;4.55;1.60;;;11.50;99.90;;;;;;5076029;28;20448;-78
2022/04/23 01:45:49;;;;;;;4.93;2.17;;;11.60;99.90;;;;;;5068158;28;20028;-78
2022/04/23 01:48:14;;;;;;;5.40;1.95;;;11.60;99.90;;;;;;5062352;28;20055;-78
2022/04/23 01:50:40;;;;;;;2.90;1.75;;;11.50;99.90;;;;;;5083829;28;20821;-78
2022/04/23 01:53:09;;;;;;;3.35;2.05;;;11.50;99.90;;;;;;5060536;28;20071;-79
2022/04/23 01:55:34;;;;;;;3.70;1.92;;;11.60;99.90;;;;;;5080683;28;20087;-78
2022/04/23 01:58:00;;;;;;;10.75;2.97;;;11.50;99.90;;;;;;5080526;28;20509;-78
2022/04/23 02:00:26;;;;;;;9.88;2.38;;;11.60;99.90;;;;;;5060310;28;20075;-78
2022/04/23 02:02:52;;;;;;;4.15;1.75;;;11.60;99.90;;;;;;5075226;28;20040;-79
2022/04/23 02:05:17;;;;;;;3.58;1.73;;;11.60;99.90;;;;;;5084059;28;20021;-78
2022/04/23 02:07:44;;;;;;;4.57;2.30;;;11.70;99.90;;;;;;5078571;28;20036;-78
2022/04/23 02:10:12;;;;;;;4.00;1.77;;;11.60;99.90;;;;;;5061257;28;20036;-78
2022/04/23 02:12:39;;;;;;;4.68;1.90;;;11.70;99.90;;;;;;5074162;28;20020;-78
2022/04/23 02:15:07;;;;;;;4.45;2.17;;;11.70;99.90;;;;;;5064201;28;20123;-79
2022/04/23 02:17:37;;;;;;;6.10;2.30;;;11.60;99.90;;;;;;5069693;28;20513;-78
2022/04/23 02:20:07;;;;;;;7.03;2.53;;;11.60;99.90;;;;;;5061982;28;20029;-79
2022/04/23 02:22:34;;;;;;;6.55;1.98;;;11.60;99.90;;;;;;5086334;28;20032;-78
2022/04/23 02:25:00;;;;;;;7.05;2.65;;;11.60;99.90;;;;;;5086077;28;20191;-78
2022/04/23 02:27:27;;;;;;;3.67;2.10;;;11.60;99.90;;;;;;5078153;28;20036;-78
2022/04/23 02:29:54;;;;;;;6.90;2.40;;;11.60;99.90;;;;;;5083315;28;20028;-78
2022/04/23 02:32:20;;;;;;;5.90;2.35;;;11.50;99.90;;;;;;5062421;28;20024;-78
2022/04/23 02:34:46;;;;;;;7.65;2.58;;;11.50;99.90;;;;;;5071203;28;20036;-78
2022/04/23 02:37:13;;;;;;;5.20;2.00;;;11.60;99.90;;;;;;5076823;28;20025;-78
2022/04/23 02:39:39;;;;;;;3.78;2.17;;;11.60;99.90;;;;;;5074401;28;20023;-78
2022/04/23 02:42:05;;;;;;;3.78;1.77;;;11.60;99.90;;;;;;5066659;28;20513;-79
2022/04/23 02:44:32;;;;;;;10.80;2.85;;;11.60;99.90;;;;;;5077765;28;20027;-78
2022/04/23 02:46:58;;;;;;;8.27;2.42;;;11.60;99.90;;;;;;5082312;28;20035;-78
2022/04/23 02:49:24;;;;;;;6.35;1.98;;;11.60;99.90;;;;;;5068651;28;20020;-79
2022/04/23 02:51:50;;;;;;;2.72;2.33;;;11.70;99.90;;;;;;5072458;28;20025;-78
2022/04/23 02:54:17;;;;;;;6.15;2.88;;;11.70;99.90;;;;;;5068486;28;20489;-79
2022/04/23 02:56:45;;;;;;;5.15;2.10;;;11.60;99.90;;;;;;5057298;28;20348;-78
2022/04/23 02:59:11;;;;;;;11.10;3.10;;;11.70;99.90;;;;;;5068597;28;20013;-79
2022/04/23 03:01:36;;;;;;;6.78;2.10;;;11.70;99.90;;;;;;5084706;28;20124;-79
2022/04/23 03:04:03;;;;;;;6.22;2.25;;;11.70;99.90;;;;;;5075299;28;20668;-79
2022/04/23 03:06:30;;;;;;;4.03;2.33;;;11.80;99.90;;;;;;5077989;28;20061;-79
2022/04/23 03:09:03;;;;;;;4.50;2.45;;;11.70;99.90;;;;;;5067931;28;20043;-78
2022/04/23 03:11:30;;;;;;;3.72;2.50;;;11.70;99.90;;;;;;5059906;28;20327;-78
2022/04/23 03:13:58;;;;;;;3.42;2.17;;;11.80;99.90;;;;;;5063777;28;20021;-79
2022/04/23 03:16:26;;;;;;;2.72;1.90;;;11.70;99.90;;;;;;5076744;28;20036;-78
2022/04/23 03:18:53;;;;;;;5.88;2.67;;;11.70;99.90;;;;;;5074088;28;20020;-79
2022/04/23 03:21:19;;;;;;;4.65;2.40;;;11.80;99.90;;;;;;5063775;28;20028;-79
2022/04/23 03:23:45;;;;;;;6.35;2.45;;;11.70;99.90;;;;;;5088392;28;20008;-78
2022/04/23 03:26:10;;;;;;;4.18;2.60;;;11.70;99.90;;;;;;5077485;28;20025;-78
2022/04/23 03:28:36;;;;;;;5.80;1.90;;;11.70;99.90;;;;;;5066622;28;20028;-78
2022/04/23 03:31:02;;;;;;;4.85;2.58;;;11.60;99.90;;;;;;5068944;28;20398;-78
2022/04/23 03:33:28;;;;;;;5.25;2.38;;;11.60;99.90;;;;;;5070335;28;20024;-79
2022/04/23 03:35:54;;;;;;;5.78;2.83;;;11.60;99.90;;;;;;5062446;28;20498;-78
2022/04/23 03:38:20;;;;;;;5.60;2.50;;;11.70;99.90;;;;;;5055057;28;20537;-78
2022/04/23 03:40:48;;;;;;;5.72;2.25;;;11.60;99.90;;;;;;5072192;28;20079;-78
2022/04/23 03:43:15;;;;;;;5.60;2.85;;;11.60;99.90;;;;;;5081102;28;20586;-79
2022/04/23 03:45:40;;;;;;;4.25;2.47;;;11.60;99.90;;;;;;5070908;28;20040;-78
2022/04/23 03:48:06;;;;;;;5.53;2.80;;;11.60;99.90;;;;;;5061889;28;20086;-79
2022/04/23 03:50:33;;;;;;;3.75;1.90;;;11.60;99.90;;;;;;5059921;28;20032;-79
2022/04/23 03:52:58;;;;;;;4.07;2.08;;;11.50;99.90;;;;;;5069565;28;20028;-79
2022/04/23 03:55:27;;;;;;;4.05;2.35;;;11.50;99.90;;;;;;5057071;28;469353;-79
2022/04/23 03:57:54;;;;;;;4.45;2.08;;;11.50;99.90;;;;;;5074985;28;20037;-79
2022/04/23 04:00:21;;;;;;;4.15;2.20;;;11.60;99.90;;;;;;5063811;28;20062;-79
2022/04/23 04:02:47;;;;;;;4.68;2.72;;;11.60;99.90;;;;;;5077899;28;20051;-79
2022/04/23 04:05:13;;;;;;;3.90;2.10;;;11.60;99.90;;;;;;5080047;28;20063;-79
2022/04/23 04:07:46;;;;;;;4.18;1.70;;;11.60;99.90;;;;;;5071890;28;20032;-78
2022/04/23 04:10:16;;;;;;;4.70;2.00;;;11.60;99.90;;;;;;5074045;28;20021;-78
2022/04/23 04:12:42;;;;;;;3.45;2.30;;;11.60;99.90;;;;;;5072469;28;20024;-79
2022/04/23 04:15:10;;;;;;;3.60;2.28;;;11.50;99.90;;;;;;5066925;28;20012;-79
2022/04/23 04:17:37;;;;;;;4.55;2.28;;;11.50;99.90;;;;;;5058161;28;20027;-78
2022/04/23 04:20:07;;;;;;;3.95;2.10;;;11.60;99.90;;;;;;5077853;28;20102;-79
2022/04/23 04:22:34;;;;;;;4.15;2.22;;;11.60;99.90;;;;;;5073227;28;20060;-79
2022/04/23 04:25:02;;;;;;;8.20;2.38;;;11.60;99.90;;;;;;5077060;28;20111;-79
2022/04/23 04:27:27;;;;;;;5.63;2.28;;;11.60;99.90;;;;;;5076697;28;20149;-79
2022/04/23 04:29:53;;;;;;;3.85;2.47;;;11.50;99.90;;;;;;5063049;28;20024;-79
2022/04/23 04:32:20;;;;;;;5.28;2.22;;;11.50;99.90;;;;;;5063009;28;20036;-78
2022/04/23 04:34:46;;;;;;;3.67;1.90;;;11.50;99.90;;;;;;5074377;28;20033;-78
2022/04/23 04:37:13;;;;;;;3.03;2.03;;;11.50;99.90;;;;;;5079029;28;20028;-78
2022/04/23 04:39:42;;;;;;;3.88;2.20;;;11.60;99.90;;;;;;5074058;28;20024;-78
2022/04/23 04:42:10;;;;;;;3.97;2.03;;;11.60;99.90;;;;;;5072353;28;20020;-79
2022/04/23 04:44:36;;;;;;;5.45;2.28;;;11.50;99.90;;;;;;5079975;28;20490;-78
2022/04/23 04:47:02;;;;;;;4.30;2.00;;;11.50;99.90;;;;;;5051691;28;20032;-79
2022/04/23 04:49:27;;;;;;;10.05;3.03;;;11.40;99.90;;;;;;5069822;28;20021;-79
2022/04/23 04:51:54;;;;;;;2.85;2.35;;;11.60;99.90;;;;;;5071085;28;20024;-79
2022/04/23 04:54:21;;;;;;;5.22;2.83;;;11.50;99.90;;;;;;5063153;28;20024;-79
2022/04/23 04:56:48;;;;;;;4.15;2.10;;;11.50;99.90;;;;;;5069673;28;20063;-79
2022/04/23 04:59:14;;;;;;;4.25;2.70;;;11.40;99.90;;;;;;5074083;28;20029;-78
2022/04/23 05:01:40;;;;;;;5.60;1.85;;;11.40;99.90;;;;;;5076814;28;20032;-78
2022/04/23 05:04:06;;;;;;;3.80;2.05;;;11.50;99.90;;;;;;5076471;28;20397;-78
2022/04/23 05:06:32;;;;;;;4.85;2.22;;;11.40;99.90;;;;;;5078382;28;20083;-78
2022/04/23 05:08:57;;;;;;;4.13;2.20;;;11.40;99.90;;;;;;5065935;28;20036;-78
2022/04/23 05:11:24;;;;;;;6.80;2.58;;;11.40;99.90;;;;;;5061664;28;20029;-78
2022/04/23 05:13:51;;;;;;;8.55;3.13;;;11.40;99.90;;;;;;5074405;28;20025;-78
2022/04/23 05:16:16;;;;;;;9.38;2.78;;;11.40;99.90;;;;;;5079882;28;20047;-78
2022/04/23 05:18:42;;;;;;;8.48;3.65;;;11.40;99.90;;;;;;5068003;28;20497;-78
2022/04/23 05:21:08;;;;;;;4.38;2.00;;;11.50;99.90;;;;;;5074043;28;20028;-79
2022/04/23 05:23:34;;;;;;;9.30;2.70;;;11.50;99.90;;;;;;5078321;28;20030;-79
2022/04/23 05:26:01;;;;;;;5.45;2.65;;;11.50;99.90;;;;;;5060325;28;20031;-79
2022/04/23 05:28:27;;;;;;;6.97;2.95;;;11.50;99.90;;;;;;5071145;28;20021;-79
2022/04/23 05:30:53;;;;;;;5.38;2.47;;;11.50;99.90;;;;;;5075343;28;20026;-79
2022/04/23 05:33:19;;;;;;;4.15;2.17;;;11.60;99.90;;;;;;5067757;28;20016;-79
2022/04/23 05:35:45;;;;;;;4.50;2.40;;;11.60;99.90;;;;;;5069215;28;20020;-79
2022/04/23 05:38:10;;;;;;;9.15;2.75;;;11.60;99.90;;;;;;5073897;28;20037;-78
2022/04/23 05:40:36;;;;;;;6.55;2.40;;;11.60;99.90;;;;;;5084214;28;20502;-78
2022/04/23 05:43:02;;;;;;;3.80;2.15;;;11.50;99.90;;;;;;5069580;28;20120;-78
2022/04/23 05:45:29;;;;;;;6.43;2.65;;;11.50;99.90;;;;;;5068214;28;20066;-78
2022/04/23 05:47:56;;;;;;;2.97;2.30;;;11.50;99.90;;;;;;5061337;28;20395;-79
2022/04/23 05:50:22;;;;;;;4.53;2.40;;;11.50;99.90;;;;;;5059651;28;20025;-79
2022/04/23 05:52:48;;;;;;;3.95;2.47;;;11.60;99.90;;;;;;5068696;28;20052;-79
2022/04/23 05:55:14;;;;;;;8.02;2.63;;;11.70;99.90;;;;;;5070433;28;20029;-79
2022/04/23 05:57:40;;;;;;;4.68;2.30;;;11.70;99.90;;;;;;5073967;28;20023;-79
2022/04/23 06:00:08;;;;;;;4.30;2.10;;;11.80;99.90;;;;;;5075494;28;20084;-79
2022/04/23 06:02:35;;;;;;;2.97;2.33;;;11.80;99.90;;;;;;5056288;28;20047;-79
2022/04/23 06:05:01;;;;;;;4.20;2.53;;;11.70;99.90;;;;;;5074003;28;20099;-78
2022/04/23 06:07:26;;;;;;;5.72;2.10;;;11.60;99.90;;;;;;5067628;28;20032;-79
2022/04/23 06:09:52;;;;;;;5.45;2.85;;;11.40;99.90;;;;;;5072075;28;20024;-79
2022/04/23 06:12:18;;;;;;;4.18;1.98;;;11.50;99.90;;;;;;5078919;28;20545;-79
2022/04/23 06:14:44;;;;;;;4.68;2.08;;;11.60;99.90;;;;;;5080399;28;20043;-78
2022/04/23 06:17:12;;;;;;;5.47;2.67;;;11.50;99.90;;;;;;5081205;28;20493;-79
2022/04/23 06:19:39;;;;;;;5.30;2.50;;;11.40;99.90;;;;;;5089144;28;20035;-79
2022/04/23 06:22:05;;;;;;;5.38;2.40;;;11.50;99.90;;;;;;5069823;28;20044;-79
2022/04/23 06:24:31;;;;;;;6.75;3.33;;;11.60;99.90;;;;;;5081478;28;20016;-79
2022/04/23 06:26:57;;;;;;;3.38;2.20;;;11.70;99.90;;;;;;5074964;28;20055;-79
2022/04/23 06:29:23;;;;;;;3.08;2.40;;;11.70;99.90;;;;;;5077412;28;20505;-78
2022/04/23 06:31:49;;;;;;;4.53;2.70;;;11.80;99.90;;;;;;5082342;28;20025;-78
2022/04/23 06:34:15;;;;;;;5.88;2.70;;;12.00;99.90;;;;;;5074221;28;20031;-78
2022/04/23 06:36:41;;;;;;;5.05;3.38;;;12.10;99.90;;;;;;5079240;28;20020;-79
2022/04/23 06:39:07;;;;;;;7.55;2.97;;;12.30;99.90;;;;;;5083627;28;20013;-79
2022/04/23 06:41:33;;;;;;;5.55;2.75;;;12.80;99.90;;;;;;5068200;28;20035;-79
2022/04/23 06:43:59;;;;;;;9.60;2.90;;;13.00;99.90;;;;;;5076504;28;20048;-79
2022/04/23 06:46:24;;;;;;;6.97;2.85;;;12.90;99.90;;;;;;5080554;28;20037;-79
2022/04/23 06:48:50;;;;;;;3.63;2.92;;;12.80;99.90;;;;;;5076593;28;20024;-79
2022/04/23 06:51:16;;;;;;;5.43;3.08;;;12.70;99.90;;;;;;5065135;28;20482;-79
2022/04/23 06:53:42;;;;;;;7.78;2.78;;;12.70;99.90;;;;;;5059204;28;20090;-79
2022/04/23 06:56:08;;;;;;;9.80;3.22;;;12.50;99.90;;;;;;5086022;28;20049;-79
2022/04/23 06:58:34;;;;;;;5.95;3.28;;;12.40;99.90;;;;;;5079867;28;20533;-79
2022/04/23 07:01:00;;;;;;;17.02;5.05;;;12.40;99.90;;;;;;5072631;28;20055;-78
2022/04/23 07:03:26;;;;;;;17.80;4.68;;;12.50;99.90;;;;;;5071805;28;20055;-78
2022/04/23 07:05:52;;;;;;;6.10;3.97;;;12.50;99.90;;;;;;5078044;28;20030;-79
2022/04/23 07:08:17;;;;;;;6.97;3.80;;;12.60;99.90;;;;;;5059255;28;20021;-79
2022/04/23 07:10:46;;;;;;;7.18;2.85;;;12.50;99.90;;;;;;5069206;28;20086;-78
2022/04/23 07:13:12;;;;;;;5.35;2.80;;;12.60;99.90;;;;;;5067413;28;20021;-78
2022/04/23 07:15:41;;;;;;;7.47;3.00;;;12.60;99.90;;;;;;5066488;28;20028;-78
2022/04/23 07:18:08;;;;;;;4.65;2.58;;;12.70;99.90;;;;;;5053321;28;20025;-78
2022/04/23 07:20:34;;;;;;;7.63;3.45;;;12.80;99.90;;;;;;5059632;28;20036;-78
2022/04/23 07:25:45;;;;;;;10.00;2.67;;;13.30;99.90;;;;;;5069433;28;20042;-78
2022/04/23 07:28:11;;;;;;;6.40;3.10;;;13.40;99.90;;;;;;5062221;28;20017;-78
2022/04/23 07:30:37;;;;;;;11.18;3.55;;;13.60;99.90;;;;;;5065874;28;20083;-78
2022/04/23 07:33:03;;;;;;;8.60;3.33;;;13.80;99.90;;;;;;5065108;28;20021;-78
2022/04/23 07:38:14;;;;;;;6.55;2.83;;;14.10;99.90;;;;;;5062756;28;20078;-78
2022/04/23 07:40:41;;;;;;;5.78;3.13;;;14.10;99.90;;;;;;5081101;28;20079;-78
2022/04/23 07:43:10;;;;;;;7.90;3.10;;;14.00;99.90;;;;;;5063184;28;20028;-77
2022/04/23 07:45:39;;;;;;;7.50;3.00;;;13.80;99.90;;;;;;5074068;28;20028;-78
2022/04/23 07:48:07;;;;;;;6.82;3.10;;;14.00;99.90;;;;;;5073228;28;20009;-78
2022/04/23 07:50:34;;;;;;;6.55;2.25;;;14.00;99.90;;;;;;5064963;28;20020;-78
2022/04/23 07:52:59;;;;;;;5.40;2.25;;;14.00;99.90;;;;;;5066189;28;20043;-77
2022/04/23 07:55:25;;;;;;;9.27;3.35;;;14.10;99.90;;;;;;5068158;28;20064;-78
2022/04/23 07:57:51;;;;;;;5.50;2.80;;;14.10;99.90;;;;;;5066988;28;20078;-78
2022/04/23 08:00:17;;;;;;;5.70;2.60;;;13.90;99.90;;;;;;5061994;28;20021;-78
2022/04/23 08:02:43;;;;;;;6.35;2.67;;;14.00;99.90;;;;;;5073192;28;20029;-78
2022/04/23 08:05:12;;;;;;;9.82;3.28;;;14.00;99.90;;;;;;5056466;28;20029;-78
2022/04/23 08:07:43;;;;;;;8.05;3.35;;;13.80;99.90;;;;;;5067620;28;20021;-78
2022/04/23 08:10:09;;;;;;;11.48;3.45;;;13.60;99.90;;;;;;5085845;28;20085;-77
2022/04/23 08:12:36;;;;;;;12.35;4.03;;;13.60;99.90;;;;;;5065282;28;20053;-78
2022/04/23 08:15:03;;;;;;;10.00;3.38;;;13.60;99.90;;;;;;5068017;28;20107;-78
2022/04/23 08:17:28;;;;;;;8.93;3.78;;;13.60;99.90;;;;;;5080745;28;20022;-78
2022/04/23 08:19:54;;;;;;;12.45;4.25;;;13.50;99.90;;;;;;5063202;28;20108;-78
2022/04/23 08:22:20;;;;;;;19.35;5.63;;;13.60;99.90;;;;;;5077080;28;20489;-78
2022/04/23 08:24:45;;;;;;;21.17;5.47;;;13.50;99.90;;;;;;5088726;28;20040;-79
2022/04/23 08:27:11;;;;;;;10.18;3.65;;;13.60;99.90;;;;;;5062736;28;20020;-79
2022/04/23 08:32:21;;;;;;;11.65;4.05;;;13.40;99.90;;;;;;5070472;28;20518;-79
2022/04/23 08:34:47;;;;;;;8.00;3.72;;;13.40;99.90;;;;;;5080724;28;20024;-79
2022/04/23 08:37:12;;;;;;;11.48;3.47;;;13.50;99.90;;;;;;5082831;28;20102;-79
2022/04/23 08:39:39;;;;;;;12.32;3.83;;;13.50;99.90;;;;;;5070595;28;20098;-78
2022/04/23 08:42:06;;;;;;;12.88;4.88;;;13.40;99.90;;;;;;5065561;28;20094;-77
2022/04/23 08:44:32;;;;;;;13.18;4.03;;;13.40;99.90;;;;;;5064804;28;20082;-76
2022/04/23 08:46:58;;;;;;;12.27;4.53;;;13.50;99.90;;;;;;5074651;28;20025;-76
2022/04/23 08:49:32;;;;;;;8.75;3.20;;;13.70;99.90;;;;;;5083771;28;20060;-76
2022/04/23 08:52:24;;;;;;;13.38;4.60;;;13.90;99.90;;;;;;5074916;28;20044;-76
2022/04/23 08:54:50;;;;;;;10.77;3.65;;;13.90;99.90;;;;;;5077013;28;20481;-77
2022/04/23 08:57:16;;;;;;;13.65;4.93;;;13.80;99.90;;;;;;5075564;28;20044;-77
2022/04/23 08:59:45;;;;;;;28.50;6.72;;;13.70;99.90;;;;;;5058620;28;20480;-77
2022/04/23 09:02:12;;;;;;;19.70;5.55;;;13.70;99.90;;;;;;5063458;28;20029;-76
2022/04/23 09:04:42;;;;;;;11.25;4.32;;;13.60;99.90;;;;;;5071201;28;20029;-77
2022/04/23 09:07:19;;;;;;;14.20;4.90;;;13.50;99.90;;;;;;5073618;28;20493;-76
2022/04/23 09:09:53;;;;;;;15.73;4.05;;;13.40;99.90;;;;;;5066870;28;20020;-77
2022/04/23 09:12:24;;;;;;;14.63;4.80;;;13.40;99.90;;;;;;5070983;28;20021;-76
2022/04/23 09:14:50;;;;;;;9.82;4.32;;;13.40;99.90;;;;;;5068657;28;20569;-76
2022/04/23 09:25:44;;;;;;;17.83;3.92;;;13.40;99.90;;;;;;5074359;28;20148;-76
2022/04/23 09:28:22;;;;;;;8.77;3.20;;;13.10;99.90;;;;;;5082132;28;20097;-76
2022/04/23 09:30:50;;;;;;;8.63;2.58;;;13.10;99.90;;;;;;5070822;28;20038;-76
2022/04/23 09:33:16;;;;;;;4.00;1.50;;;12.60;99.90;;;;;;5074037;28;20027;-76
2022/04/23 09:35:56;;;;;;;6.80;2.13;;;12.50;99.90;;;;;;5081725;28;20063;-76
2022/04/23 09:38:23;;;;;;;4.63;1.70;;;12.30;99.90;;;;;;5058632;28;20048;-75
2022/04/23 09:40:59;;;;;;;4.28;2.30;;;12.20;99.90;;;;;;5066553;28;20028;-75
2022/04/23 09:43:28;;;;;;;2.00;1.70;;;11.80;99.90;;;;;;5071174;28;20033;-75
2022/04/23 09:46:00;;;;;;;4.30;1.85;;;11.40;99.90;;;;;;5062756;28;20036;-74
2022/04/23 09:48:26;;;;;;;3.28;1.63;;;11.30;99.90;;;;;;5062356;28;20047;-74
2022/04/23 09:50:52;;;;;;;0.80;0.80;;;11.20;99.90;;;;;;5076702;28;20024;-74
2022/04/23 09:53:19;;;;;;;3.28;1.30;;;11.10;99.90;;;;;;5077122;28;20106;-74
2022/04/23 09:55:46;;;;;;;3.13;0.70;;;11.00;99.90;;;;;;5063099;28;20045;-74
2022/04/23 09:58:13;;;;;;;0.50;0.50;;;10.90;99.90;;;;;;5065637;28;20021;-74
2022/04/23 10:00:43;;;;;;;2.83;1.00;;;10.80;99.90;;;;;;5072488;28;20024;-74
2022/04/23 10:03:11;;;;;;;3.00;0.80;;;10.80;99.90;;;;;;5052274;28;20017;-74
2022/04/23 10:05:46;;;;;;;0.85;0.70;;;10.60;99.90;;;;;;5066984;28;20136;-74
2022/04/23 10:08:17;;;;;;;1.00;0.73;;;10.40;99.90;;;;;;5062758;28;20021;-74
2022/04/23 10:10:44;;;;;;;0.93;0.70;;;10.20;99.90;;;;;;5081235;28;20112;-74
2022/04/23 10:13:11;;;;;;;0.70;0.70;;;10.20;99.90;;;;;;5073996;28;20378;-74
2022/04/23 10:15:39;;;;;;;2.70;0.68;;;10.10;99.90;;;;;;5072990;28;20027;-74
2022/04/23 10:18:08;;;;;;;1.13;0.60;;;9.90;99.90;;;;;;5068335;28;20034;-75
2022/04/23 10:20:35;;;;;;;2.28;0.63;;;9.90;99.90;;;;;;5064268;28;20028;-74
2022/04/23 10:23:15;;;;;;;0.85;0.50;;;9.80;99.90;;;;;;5066334;28;20101;-75
2022/04/23 10:25:57;;;;;;;1.02;0.88;;;9.70;99.90;;;;;;5079342;28;20071;-75
2022/04/23 10:28:23;;;;;;;3.00;0.65;;;9.70;99.90;;;;;;5066221;28;20024;-75
2022/04/23 10:31:15;;;;;;;1.05;0.95;;;9.90;99.90;;;;;;5071841;28;20468;-75
2022/04/23 10:33:46;;;;;;;1.42;0.70;;;10.00;99.90;;;;;;5072071;28;20028;-76
2022/04/23 10:36:13;;;;;;;0.70;0.70;;;10.20;99.90;;;;;;5064925;28;20070;-75
2022/04/23 10:38:42;;;;;;;0.70;0.60;;;10.30;99.90;;;;;;5058712;28;20033;-75
2022/04/23 10:41:11;;;;;;;1.85;0.50;;;10.00;99.90;;;;;;5069420;28;20021;-75
2022/04/23 10:43:57;;;;;;;1.42;0.60;;;9.80;99.90;;;;;;5066233;28;20021;-75
2022/04/23 10:46:41;;;;;;;0.73;0.50;;;9.80;99.90;;;;;;5084916;28;20089;-75
2022/04/23 10:49:16;;;;;;;0.40;0.40;;;9.70;99.90;;;;;;5078866;28;20030;-75
2022/04/23 10:51:46;;;;;;;1.17;0.80;;;9.60;99.90;;;;;;5074671;28;20016;-76
2022/04/23 10:54:12;;;;;;;0.50;0.50;;;9.50;99.90;;;;;;5068895;28;20157;-75
2022/04/23 10:56:38;;;;;;;0.77;0.70;;;9.60;99.90;;;;;;5062050;28;20052;-76
2022/04/23 10:59:03;;;;;;;0.68;0.68;;;9.40;99.90;;;;;;5058924;28;20509;-76
2022/04/23 11:01:30;;;;;;;0.60;0.60;;;9.40;99.90;;;;;;5065464;28;20021;-76
2022/04/23 11:03:59;;;;;;;0.65;0.65;;;9.60;99.90;;;;;;5080897;28;20023;-76
2022/04/23 11:12:22;;;;;;;1.65;0.50;;;9.60;99.90;;;;;;5062973;28;20111;-76
2022/04/23 11:14:52;;;;;;;1.08;0.52;;;9.80;99.90;;;;;;5075129;28;20028;-77
2022/04/23 11:17:25;;;;;;;0.82;0.57;;;9.80;99.90;;;;;;5072106;28;20059;-77
2022/04/23 11:19:55;;;;;;;0.45;0.43;;;9.80;99.90;;;;;;5071062;28;20025;-77
2022/04/23 11:22:21;;;;;;;0.57;0.47;;;9.70;99.90;;;;;;5074224;28;20036;-76
2022/04/23 11:24:48;;;;;;;2.47;0.50;;;9.90;99.90;;;;;;5090027;28;20055;-76
2022/04/23 11:27:28;;;;;;;0.73;0.60;;;10.00;99.90;;;;;;5070914;28;20021;-76
2022/04/23 11:29:54;;;;;;;0.70;0.70;;;10.00;99.90;;;;;;5079935;28;20024;-76
2022/04/23 11:32:28;;;;;;;2.63;0.70;;;9.90;99.90;;;;;;5068457;28;20029;-76
2022/04/23 11:35:04;;;;;;;0.77;0.68;;;10.00;99.90;;;;;;5063402;28;20040;-75
2022/04/23 11:37:37;;;;;;;0.60;0.50;;;9.90;99.90;;;;;;5073268;28;20017;-75
2022/04/23 11:40:08;;;;;;;0.60;0.60;;;9.70;99.90;;;;;;5076755;28;20085;-75
2022/04/23 11:42:42;;;;;;;2.50;0.50;;;9.70;99.90;;;;;;5069065;28;20051;-75
2022/04/23 11:45:09;;;;;;;0.77;0.77;;;9.70;99.90;;;;;;5064610;28;20149;-75
2022/04/23 11:47:35;;;;;;;1.08;0.80;;;9.50;99.90;;;;;;5075720;28;20028;-75
2022/04/23 11:50:13;;;;;;;0.70;0.70;;;9.70;99.90;;;;;;5078158;28;20074;-75
2022/04/23 11:52:41;;;;;;;1.65;1.00;;;9.70;99.90;;;;;;5090698;28;20034;-75
2022/04/23 11:55:10;;;;;;;1.20;0.80;;;9.50;99.90;;;;;;5066132;28;20024;-75
2022/04/23 11:57:37;;;;;;;0.82;0.80;;;9.50;99.90;;;;;;5073978;28;20048;-75
2022/04/23 12:00:03;;;;;;;1.33;0.80;;;9.50;99.90;;;;;;5056362;28;20106;-75
2022/04/23 12:02:31;;;;;;;0.65;0.60;;;9.60;99.90;;;;;;5069228;28;20036;-76
2022/04/23 12:05:02;;;;;;;1.08;0.98;;;9.50;99.90;;;;;;5075449;28;20033;-75
2022/04/23 12:07:32;;;;;;;0.57;0.57;;;9.60;99.90;;;;;;5071340;28;20025;-75
2022/04/23 12:09:59;;;;;;;1.10;1.00;;;9.50;99.90;;;;;;5079616;28;20032;-75
2022/04/23 12:12:26;;;;;;;2.42;1.20;;;9.30;99.90;;;;;;5083874;28;20073;-75
2022/04/23 12:14:54;;;;;;;1.95;1.13;;;9.30;99.90;;;;;;5063004;28;20031;-76
2022/04/23 12:17:26;;;;;;;2.00;0.52;;;9.20;99.90;;;;;;5063580;28;20029;-75
2022/04/23 12:19:57;;;;;;;0.70;0.70;;;9.40;99.90;;;;;;5071770;28;20021;-76
2022/04/23 12:22:31;;;;;;;1.27;0.55;;;9.20;99.90;;;;;;5081848;28;20036;-76
2022/04/23 12:25:19;;;;;;;0.60;0.60;;;9.40;99.90;;;;;;5083721;28;20031;-75
2022/04/23 12:28:01;;;;;;;1.40;0.50;;;9.60;99.90;;;;;;5068500;28;20052;-75
2022/04/23 12:41:58;;;;;;;0.50;0.50;;;10.00;99.90;;;;;;5065931;28;20039;-77
2022/04/23 12:44:32;;;;;;;0.55;0.50;;;10.20;99.90;;;;;;5076809;28;20311;-76
2022/04/23 12:46:59;;;;;;;0.68;0.68;;;10.20;99.90;;;;;;5068722;28;20044;-78
2022/04/23 12:49:56;;;;;;;0.57;0.57;;;10.20;99.90;;;;;;5068060;28;20864;-75
2022/04/23 12:52:23;;;;;;;0.50;0.50;;;10.20;99.90;;;;;;5067474;28;20108;-77
2022/04/23 12:55:10;;;;;;;0.85;0.70;;;10.20;99.90;;;;;;5072047;28;20031;-75
2022/04/23 12:57:36;;;;;;;0.88;0.60;;;10.20;99.90;;;;;;5072752;28;20047;-76
2022/04/23 13:00:05;;;;;;;0.68;0.40;;;10.20;99.90;;;;;;5062178;28;20036;-77
2022/04/23 13:02:37;;;;;;;0.90;0.50;;;10.10;99.90;;;;;;5071156;28;20106;-78
2022/04/23 13:05:05;;;;;;;1.02;0.70;;;10.20;99.90;;;;;;5067228;28;20068;-76
2022/04/23 13:10:16;;;;;;;0.60;0.57;;;10.10;99.90;;;;;;5067665;28;20098;-76
2022/04/23 13:12:42;;;;;;;0.40;0.40;;;10.10;99.90;;;;;;5067818;28;20604;-77
2022/04/23 13:15:08;;;;;;;0.70;0.60;;;10.10;99.90;;;;;;5063924;28;20032;-77
2022/04/23 13:17:38;;;;;;;0.50;0.50;;;10.20;99.90;;;;;;5059933;28;20027;-76
2022/04/23 13:20:08;;;;;;;0.68;0.68;;;10.20;99.90;;;;;;5065442;28;20040;-76
2022/04/23 13:22:34;;;;;;;0.85;0.85;;;10.30;99.90;;;;;;5065420;28;20024;-77
2022/04/23 13:25:02;;;;;;;0.50;0.50;;;10.30;99.90;;;;;;5073526;28;20025;-76
2022/04/23 13:27:29;;;;;;;0.30;0.30;;;10.30;99.90;;;;;;5068696;28;20099;-76